Time;durP1;ratioP1;P1;durP2;ratioP2;P2;SDS_P1;SDS_P2;PMS_P1;PMS_P2;Temp;Humidity;BMP_temperature;BMP_pressure;BME280_temperature;BME280_humidity;BME280_pressure;Samples;Min_cycle;Max_cycle;Signal;HPM_P1;HPM_P2
2021/05/21 00:02:23;;;;;;;9.88;2.35;;;;;;;;;;6794982;29;20473;-73
2021/05/21 00:05:43;;;;;;;20.85;2.97;;;;;;;;;;6809138;29;20032;-73
2021/05/21 00:09:04;;;;;;;12.98;2.92;;;;;;;;;;6808772;29;20043;-73
2021/05/21 00:12:25;;;;;;;18.27;2.80;;;;;;;;;;6807896;29;20039;-73
2021/05/21 00:15:45;;;;;;;10.00;2.20;;;;;;;;;;6809377;29;20070;-73
2021/05/21 00:19:06;;;;;;;14.20;2.22;;;;;;;;;;6809862;29;20060;-74
2021/05/21 00:22:26;;;;;;;13.73;2.60;;;;;;;;;;6809839;29;20181;-73
2021/05/21 00:25:47;;;;;;;7.63;1.98;;;;;;;;;;6809570;29;20489;-73
2021/05/21 00:29:07;;;;;;;7.78;2.17;;;;;;;;;;6809594;29;20347;-73
2021/05/21 00:32:27;;;;;;;12.55;2.47;;;;;;;;;;6901239;23;20146;-73
2021/05/21 00:35:48;;;;;;;8.45;2.40;;;;;;;;;;6809204;29;20047;-73
2021/05/21 00:39:08;;;;;;;5.45;2.05;;;;;;;;;;6810109;29;20142;-74
2021/05/21 00:42:28;;;;;;;12.35;2.30;;;;;;;;;;6809754;29;20102;-72
2021/05/21 00:45:49;;;;;;;7.93;1.90;;;;;;;;;;6809532;29;20455;-73
2021/05/21 00:49:09;;;;;;;6.00;2.30;;;;;;;;;;6809549;29;20124;-73
2021/05/21 00:52:30;;;;;;;6.88;2.10;;;;;;;;;;6809302;29;20374;-73
2021/05/21 00:55:51;;;;;;;6.45;2.05;;;;;;;;;;6793758;29;20031;-73
2021/05/21 00:59:11;;;;;;;9.18;2.42;;;;;;;;;;6799935;29;20083;-73
2021/05/21 01:02:32;;;;;;;8.95;1.98;;;;;;;;;;6814543;29;20039;-73
2021/05/21 01:05:52;;;;;;;6.40;1.80;;;;;;;;;;6814716;29;20127;-73
2021/05/21 01:09:13;;;;;;;8.45;2.15;;;;;;;;;;6803202;29;20039;-73
2021/05/21 01:12:33;;;;;;;6.25;2.20;;;;;;;;;;6811801;29;20136;-73
2021/05/21 01:15:54;;;;;;;5.70;1.95;;;;;;;;;;6816151;29;20031;-74
2021/05/21 01:19:14;;;;;;;5.88;1.60;;;;;;;;;;6814196;29;20078;-73
2021/05/21 01:22:34;;;;;;;6.28;1.83;;;;;;;;;;6814325;29;20066;-74
2021/05/21 01:25:55;;;;;;;9.27;1.90;;;;;;;;;;6834155;29;20086;-72
2021/05/21 01:29:15;;;;;;;5.55;1.90;;;;;;;;;;6812069;29;20095;-74
2021/05/21 01:32:36;;;;;;;8.80;1.92;;;;;;;;;;6826444;29;20047;-74
2021/05/21 01:35:56;;;;;;;6.03;2.10;;;;;;;;;;6813330;29;20035;-74
2021/05/21 01:39:16;;;;;;;4.35;2.00;;;;;;;;;;6813086;29;20083;-73
2021/05/21 01:42:37;;;;;;;5.22;1.88;;;;;;;;;;6813428;29;20130;-73
2021/05/21 01:45:58;;;;;;;8.15;2.70;;;;;;;;;;6812949;29;20044;-73
2021/05/21 01:49:19;;;;;;;4.15;1.40;;;;;;;;;;6812174;29;20031;-73
2021/05/21 01:52:39;;;;;;;4.82;1.77;;;;;;;;;;6811589;29;20394;-73
2021/05/21 01:56:00;;;;;;;6.57;2.17;;;;;;;;;;6812936;29;20122;-73
2021/05/21 01:59:21;;;;;;;5.93;1.70;;;;;;;;;;6800530;29;20035;-73
2021/05/21 02:02:42;;;;;;;5.57;2.13;;;;;;;;;;6811545;29;20095;-73
2021/05/21 02:06:02;;;;;;;13.02;2.13;;;;;;;;;;6812124;29;20032;-74
2021/05/21 02:09:23;;;;;;;3.47;1.77;;;;;;;;;;6810765;29;20068;-73
2021/05/21 02:12:44;;;;;;;8.10;2.25;;;;;;;;;;6811448;29;20091;-73
2021/05/21 02:16:05;;;;;;;3.90;1.70;;;;;;;;;;6812172;29;20043;-73
2021/05/21 02:19:25;;;;;;;5.75;1.67;;;;;;;;;;6810758;29;20035;-73
2021/05/21 02:22:45;;;;;;;3.38;1.58;;;;;;;;;;6803131;29;20083;-74
2021/05/21 02:26:06;;;;;;;2.90;1.50;;;;;;;;;;6797801;29;20079;-74
2021/05/21 02:29:26;;;;;;;3.67;1.40;;;;;;;;;;6811041;29;20031;-74
2021/05/21 02:32:47;;;;;;;4.78;1.80;;;;;;;;;;6810837;29;20382;-74
2021/05/21 02:36:07;;;;;;;3.45;1.55;;;;;;;;;;6824943;29;20490;-74
2021/05/21 02:39:28;;;;;;;3.88;1.67;;;;;;;;;;6807419;29;20074;-74
2021/05/21 02:42:51;;;;;;;3.60;1.55;;;;;;;;;;6802406;29;20036;-73
2021/05/21 02:46:11;;;;;;;11.15;1.67;;;;;;;;;;6812200;29;20370;-74
2021/05/21 02:49:34;;;;;;;8.15;1.73;;;;;;;;;;6811206;29;20474;-74
2021/05/21 02:52:54;;;;;;;12.15;1.80;;;;;;;;;;6812128;29;20042;-74
2021/05/21 02:56:14;;;;;;;5.13;1.50;;;;;;;;;;6809385;29;20040;-75
2021/05/21 02:59:35;;;;;;;2.50;1.40;;;;;;;;;;6801729;29;20112;-74
2021/05/21 03:02:56;;;;;;;5.15;1.52;;;;;;;;;;6818231;29;20067;-74
2021/05/21 03:06:16;;;;;;;3.13;1.40;;;;;;;;;;6810961;29;20035;-74
2021/05/21 03:09:36;;;;;;;4.20;1.58;;;;;;;;;;6811424;29;20119;-74
2021/05/21 03:12:57;;;;;;;4.38;1.52;;;;;;;;;;6810334;29;20114;-74
2021/05/21 03:16:17;;;;;;;3.33;1.50;;;;;;;;;;6810597;29;20067;-74
2021/05/21 03:19:38;;;;;;;2.38;1.13;;;;;;;;;;6807250;29;20386;-74
2021/05/21 03:22:59;;;;;;;6.30;1.60;;;;;;;;;;6803837;29;20054;-74
2021/05/21 03:26:19;;;;;;;4.70;1.30;;;;;;;;;;6810011;29;20031;-74
2021/05/21 03:29:40;;;;;;;4.05;1.50;;;;;;;;;;6811824;29;20110;-73
2021/05/21 03:33:00;;;;;;;10.27;1.88;;;;;;;;;;6813751;29;20035;-74
2021/05/21 03:36:21;;;;;;;4.30;1.50;;;;;;;;;;6810153;29;20027;-74
2021/05/21 03:39:41;;;;;;;7.68;1.63;;;;;;;;;;6808953;29;20118;-74
2021/05/21 03:43:02;;;;;;;8.43;1.65;;;;;;;;;;6792857;29;20031;-74
2021/05/21 03:46:23;;;;;;;2.83;1.27;;;;;;;;;;6809606;29;20086;-73
2021/05/21 03:49:43;;;;;;;3.47;1.27;;;;;;;;;;6808850;29;20067;-73
2021/05/21 03:53:04;;;;;;;5.82;1.33;;;;;;;;;;6809654;29;20047;-73
2021/05/21 03:56:24;;;;;;;4.30;1.45;;;;;;;;;;6808967;29;20046;-74
2021/05/21 03:59:44;;;;;;;2.20;1.30;;;;;;;;;;6809721;29;20055;-75
2021/05/21 04:03:06;;;;;;;5.40;1.30;;;;;;;;;;6810231;29;20110;-74
2021/05/21 04:06:26;;;;;;;3.45;1.23;;;;;;;;;;6809399;29;20389;-75
2021/05/21 04:09:47;;;;;;;1.30;1.20;;;;;;;;;;6808487;29;20454;-74
2021/05/21 04:13:07;;;;;;;5.95;1.30;;;;;;;;;;6809797;29;20039;-73
2021/05/21 04:16:27;;;;;;;4.25;1.50;;;;;;;;;;6809462;29;20094;-74
2021/05/21 04:19:48;;;;;;;3.40;1.38;;;;;;;;;;6805861;29;20111;-74
2021/05/21 04:23:08;;;;;;;4.40;1.17;;;;;;;;;;6799825;29;20032;-74
2021/05/21 04:26:29;;;;;;;4.65;1.60;;;;;;;;;;6812200;29;20043;-74
2021/05/21 04:29:49;;;;;;;6.32;1.40;;;;;;;;;;6810342;29;20055;-74
2021/05/21 04:33:10;;;;;;;9.13;1.63;;;;;;;;;;6805029;29;20028;-74
2021/05/21 04:36:30;;;;;;;3.90;1.58;;;;;;;;;;6795303;29;20051;-74
2021/05/21 04:39:50;;;;;;;5.47;1.95;;;;;;;;;;6797460;29;20050;-74
2021/05/21 04:43:11;;;;;;;3.15;1.27;;;;;;;;;;6806942;29;20081;-75
2021/05/21 04:46:31;;;;;;;2.58;1.40;;;;;;;;;;6803282;29;20470;-74
2021/05/21 04:49:52;;;;;;;4.63;1.50;;;;;;;;;;6795866;29;20493;-74
2021/05/21 04:53:13;;;;;;;2.13;1.35;;;;;;;;;;6808501;29;20114;-73
2021/05/21 04:56:33;;;;;;;2.97;1.55;;;;;;;;;;6785704;29;20032;-74
2021/05/21 04:59:54;;;;;;;1.60;1.00;;;;;;;;;;6798744;29;20036;-74
2021/05/21 05:03:18;;;;;;;1.83;1.27;;;;;;;;;;6809680;29;20110;-74
2021/05/21 05:06:38;;;;;;;1.55;1.13;;;;;;;;;;6804599;29;20462;-73
2021/05/21 05:09:58;;;;;;;6.28;1.42;;;;;;;;;;6780574;29;20043;-73
2021/05/21 05:13:19;;;;;;;2.05;1.13;;;;;;;;;;6807445;29;20055;-73
2021/05/21 05:16:40;;;;;;;2.03;1.20;;;;;;;;;;6797693;29;20040;-74
2021/05/21 05:20:01;;;;;;;2.03;1.30;;;;;;;;;;6802269;29;20056;-74
2021/05/21 05:23:21;;;;;;;1.90;1.33;;;;;;;;;;6790153;29;20031;-75
2021/05/21 05:26:42;;;;;;;4.57;1.38;;;;;;;;;;6808133;29;20035;-74
2021/05/21 05:30:03;;;;;;;4.05;1.30;;;;;;;;;;6808514;29;20513;-74
2021/05/21 05:33:24;;;;;;;5.07;1.50;;;;;;;;;;6808680;29;20036;-73
2021/05/21 05:36:44;;;;;;;3.92;2.47;;;;;;;;;;6807975;29;20083;-73
2021/05/21 05:40:06;;;;;;;2.30;2.10;;;;;;;;;;6794906;29;20036;-74
2021/05/21 05:43:26;;;;;;;2.53;2.33;;;;;;;;;;6789183;29;20027;-74
2021/05/21 05:46:46;;;;;;;6.68;6.18;;;;;;;;;;6813248;29;20038;-73
2021/05/21 05:50:07;;;;;;;6.80;6.38;;;;;;;;;;6810588;29;20043;-74
2021/05/21 05:53:34;;;;;;;6.00;5.60;;;;;;;;;;6801147;29;20464;-73
2021/05/21 05:56:55;;;;;;;12.75;1.85;;;;;;;;;;6775085;29;20036;-74
2021/05/21 06:00:15;;;;;;;1.55;1.33;;;;;;;;;;6799684;29;20070;-74
2021/05/21 06:03:36;;;;;;;8.45;1.58;;;;;;;;;;6794156;29;20028;-73
2021/05/21 06:06:56;;;;;;;2.13;1.25;;;;;;;;;;6800593;29;20443;-73
2021/05/21 06:10:17;;;;;;;5.53;1.92;;;;;;;;;;6811987;29;20027;-73
2021/05/21 06:13:37;;;;;;;7.88;1.50;;;;;;;;;;6811750;29;20043;-73
2021/05/21 06:16:57;;;;;;;3.80;1.48;;;;;;;;;;6808915;29;20480;-75
2021/05/21 06:20:18;;;;;;;5.60;1.48;;;;;;;;;;6787418;29;20039;-74
2021/05/21 06:23:39;;;;;;;4.88;1.23;;;;;;;;;;6800523;29;20043;-74
2021/05/21 06:30:38;;;;;;;1.20;1.10;;;;;;;;;;6802952;29;20048;-74
2021/05/21 06:33:59;;;;;;;2.78;1.50;;;;;;;;;;6809634;29;20127;-75
2021/05/21 06:37:19;;;;;;;4.85;1.48;;;;;;;;;;6808112;29;20043;-74
2021/05/21 06:40:40;;;;;;;3.30;1.40;;;;;;;;;;6809668;29;20063;-75
2021/05/21 06:44:00;;;;;;;4.55;1.60;;;;;;;;;;6805423;29;20114;-75
2021/05/21 06:47:21;;;;;;;1.85;1.38;;;;;;;;;;6817375;29;20105;-75
2021/05/21 06:50:42;;;;;;;1.67;1.35;;;;;;;;;;6802310;29;20066;-74
2021/05/21 06:54:03;;;;;;;1.98;1.30;;;;;;;;;;6782209;29;20032;-74
2021/05/21 06:57:23;;;;;;;1.75;1.40;;;;;;;;;;6798380;29;20351;-75
2021/05/21 07:00:44;;;;;;;2.10;1.30;;;;;;;;;;6803815;29;20040;-74
2021/05/21 07:04:05;;;;;;;4.43;1.50;;;;;;;;;;6811407;29;20027;-74
2021/05/21 07:07:25;;;;;;;3.22;1.35;;;;;;;;;;6813157;29;20038;-74
2021/05/21 07:10:46;;;;;;;2.53;1.35;;;;;;;;;;6810941;29;20126;-74
2021/05/21 07:14:10;;;;;;;4.88;2.03;;;;;;;;;;6796059;29;20462;-75
2021/05/21 07:17:31;;;;;;;2.95;1.50;;;;;;;;;;6810841;29;20428;-74
2021/05/21 07:20:51;;;;;;;4.30;1.50;;;;;;;;;;6801872;29;20390;-75
2021/05/21 07:24:12;;;;;;;1.73;1.50;;;;;;;;;;6803815;29;20542;-75
2021/05/21 07:27:32;;;;;;;2.42;1.30;;;;;;;;;;6808903;29;20031;-75
2021/05/21 07:30:53;;;;;;;2.17;1.30;;;;;;;;;;6809851;29;20055;-74
2021/05/21 07:34:14;;;;;;;4.45;1.30;;;;;;;;;;6802902;29;20446;-76
2021/05/21 07:37:34;;;;;;;2.15;1.40;;;;;;;;;;6807356;29;20051;-74
2021/05/21 07:40:55;;;;;;;1.50;1.27;;;;;;;;;;6795020;29;20091;-74
2021/05/21 07:44:16;;;;;;;5.18;1.40;;;;;;;;;;6801903;29;20423;-75
2021/05/21 07:47:36;;;;;;;19.85;2.47;;;;;;;;;;6808063;29;20079;-74
2021/05/21 07:50:57;;;;;;;6.85;4.07;;;;;;;;;;6803853;29;20036;-75
2021/05/21 07:54:17;;;;;;;7.00;5.43;;;;;;;;;;6808316;29;20028;-75
2021/05/21 07:57:38;;;;;;;4.60;4.18;;;;;;;;;;6802732;29;20028;-75
2021/05/21 08:00:59;;;;;;;10.75;4.57;;;;;;;;;;6798479;29;20091;-75
2021/05/21 08:04:19;;;;;;;7.45;3.75;;;;;;;;;;6809527;29;20078;-74
2021/05/21 08:07:40;;;;;;;10.35;3.90;;;;;;;;;;6797280;29;20027;-74
2021/05/21 08:11:02;;;;;;;10.60;3.80;;;;;;;;;;6808858;29;20119;-77
2021/05/21 08:14:22;;;;;;;11.55;3.20;;;;;;;;;;6787972;29;20079;-74
2021/05/21 08:17:43;;;;;;;6.28;2.90;;;;;;;;;;6788811;29;20039;-75
2021/05/21 08:21:03;;;;;;;5.45;3.40;;;;;;;;;;6789294;29;20437;-74
2021/05/21 08:24:24;;;;;;;5.45;2.97;;;;;;;;;;6798004;29;20028;-75
2021/05/21 08:27:44;;;;;;;3.70;2.53;;;;;;;;;;6789049;29;20084;-74
2021/05/21 08:31:05;;;;;;;12.52;2.60;;;;;;;;;;6792869;29;20068;-74
2021/05/21 08:34:26;;;;;;;4.22;2.33;;;;;;;;;;6794089;29;20122;-74
2021/05/21 08:37:47;;;;;;;5.50;2.33;;;;;;;;;;6793758;29;20032;-75
2021/05/21 08:41:14;;;;;;;2.95;1.73;;;;;;;;;;6787287;29;20127;-75
2021/05/21 08:44:36;;;;;;;7.88;2.10;;;;;;;;;;6800204;29;20028;-75
2021/05/21 08:47:57;;;;;;;2.83;1.60;;;;;;;;;;6808650;29;20035;-75
2021/05/21 08:51:18;;;;;;;7.68;1.80;;;;;;;;;;6804938;29;20098;-75
2021/05/21 08:54:40;;;;;;;2.15;1.40;;;;;;;;;;6805541;29;20055;-75
2021/05/21 08:58:01;;;;;;;3.05;1.65;;;;;;;;;;6804340;29;20411;-75
2021/05/21 09:01:26;;;;;;;2.97;1.60;;;;;;;;;;6804315;29;20051;-74
2021/05/21 09:04:48;;;;;;;3.63;1.75;;;;;;;;;;6793613;29;20036;-74
2021/05/21 09:08:08;;;;;;;4.07;1.65;;;;;;;;;;6806892;29;20031;-75
2021/05/21 09:11:42;;;;;;;5.18;1.45;;;;;;;;;;6791097;29;20064;-75
2021/05/21 09:15:22;;;;;;;7.22;1.50;;;;;;;;;;6777134;29;20049;-75
2021/05/21 09:19:04;;;;;;;2.67;1.75;;;;;;;;;;6812687;29;20028;-75
2021/05/21 09:22:24;;;;;;;4.20;2.15;;;;;;;;;;6800448;29;20040;-75
2021/05/21 09:25:49;;;;;;;6.07;1.70;;;;;;;;;;6801454;29;20043;-74
2021/05/21 09:29:14;;;;;;;3.25;1.70;;;;;;;;;;6788891;29;20091;-75
2021/05/21 09:32:35;;;;;;;4.30;1.67;;;;;;;;;;6810121;29;20043;-75
2021/05/21 09:35:55;;;;;;;5.68;1.75;;;;;;;;;;6813312;29;20039;-75
2021/05/21 09:39:16;;;;;;;3.10;1.67;;;;;;;;;;6810286;29;20039;-76
2021/05/21 09:42:48;;;;;;;3.50;1.70;;;;;;;;;;6806636;29;20058;-75
2021/05/21 09:46:11;;;;;;;2.60;1.40;;;;;;;;;;6809751;29;20031;-75
2021/05/21 09:49:37;;;;;;;2.95;1.30;;;;;;;;;;6797801;29;20031;-74
2021/05/21 09:53:06;;;;;;;2.40;1.52;;;;;;;;;;6787222;29;20032;-75
2021/05/21 09:56:26;;;;;;;2.42;1.55;;;;;;;;;;6796009;29;20075;-75
2021/05/21 09:59:46;;;;;;;2.95;1.20;;;;;;;;;;6805868;29;20039;-75
2021/05/21 10:03:07;;;;;;;2.22;1.20;;;;;;;;;;6810019;29;20031;-74
2021/05/21 10:06:28;;;;;;;3.13;1.58;;;;;;;;;;6812871;29;20403;-75
2021/05/21 10:09:49;;;;;;;1.13;1.02;;;;;;;;;;6803754;29;20379;-75
2021/05/21 10:13:10;;;;;;;2.97;1.50;;;;;;;;;;6799523;29;20120;-75
2021/05/21 10:16:32;;;;;;;6.40;1.42;;;;;;;;;;6798885;29;20031;-75
2021/05/21 10:19:54;;;;;;;3.55;1.77;;;;;;;;;;6790711;29;20039;-75
2021/05/21 10:23:22;;;;;;;2.28;1.48;;;;;;;;;;6790298;29;20027;-75
2021/05/21 10:26:43;;;;;;;6.15;1.50;;;;;;;;;;6809013;29;20114;-75
2021/05/21 10:30:06;;;;;;;3.88;1.42;;;;;;;;;;6792405;29;20048;-75
2021/05/21 10:33:36;;;;;;;3.38;1.55;;;;;;;;;;6802200;29;20040;-74
2021/05/21 10:37:27;;;;;;;1.92;1.25;;;;;;;;;;6801927;29;20047;-75
2021/05/21 10:41:14;;;;;;;1.40;1.30;;;;;;;;;;6788142;29;20032;-75
2021/05/21 10:44:38;;;;;;;7.15;1.45;;;;;;;;;;6793515;29;20039;-75
2021/05/21 10:48:08;;;;;;;2.10;1.33;;;;;;;;;;6785737;29;20031;-75
2021/05/21 10:51:29;;;;;;;;;;;;;;;;;;6796317;29;20115;-75
2021/05/21 10:54:51;;;;;;;1.52;1.42;;;;;;;;;;6791879;29;20281;-74
2021/05/21 10:58:29;;;;;;;1.63;1.30;;;;;;;;;;6810041;29;20044;-75
2021/05/21 11:01:50;;;;;;;2.00;1.42;;;;;;;;;;6799977;29;20539;-75
2021/05/21 11:05:36;;;;;;;1.42;1.20;;;;;;;;;;6799479;29;20465;-75
2021/05/21 11:09:07;;;;;;;2.17;1.10;;;;;;;;;;6809534;29;20130;-75
2021/05/21 11:12:43;;;;;;;1.35;1.10;;;;;;;;;;6809711;29;20103;-75
2021/05/21 11:16:03;;;;;;;2.28;1.50;;;;;;;;;;6791906;29;20123;-75
2021/05/21 11:19:28;;;;;;;2.53;1.42;;;;;;;;;;6797906;29;20031;-75
2021/05/21 11:22:48;;;;;;;1.23;1.10;;;;;;;;;;6798340;29;20040;-75
2021/05/21 11:26:16;;;;;;;4.50;1.30;;;;;;;;;;6806744;29;20039;-81
2021/05/21 11:29:42;;;;;;;4.95;1.50;;;;;;;;;;6809153;29;20122;-81
2021/05/21 11:33:03;;;;;;;2.35;1.30;;;;;;;;;;6794326;29;20067;-82
2021/05/21 11:36:26;;;;;;;2.40;1.38;;;;;;;;;;6805703;29;20540;-82
2021/05/21 11:39:46;;;;;;;6.65;1.50;;;;;;;;;;6792935;29;20179;-83
2021/05/21 11:43:07;;;;;;;6.55;1.30;;;;;;;;;;6791176;29;20028;-81
2021/05/21 11:46:28;;;;;;;2.05;1.40;;;;;;;;;;6791808;29;20028;-82
2021/05/21 11:49:48;;;;;;;8.73;1.67;;;;;;;;;;6808550;29;20054;-81
2021/05/21 11:53:12;;;;;;;3.30;1.45;;;;;;;;;;6799433;29;20059;-80
2021/05/21 11:56:36;;;;;;;3.25;1.20;;;;;;;;;;6806637;29;20204;-81
2021/05/21 11:59:56;;;;;;;3.83;1.42;;;;;;;;;;6809477;29;20039;-81
2021/05/21 12:03:17;;;;;;;2.70;1.45;;;;;;;;;;6807356;29;20393;-80
2021/05/21 12:06:41;;;;;;;2.45;1.40;;;;;;;;;;6793656;29;20054;-81
2021/05/21 12:10:04;;;;;;;2.40;1.40;;;;;;;;;;6792879;29;20051;-81
2021/05/21 12:13:30;;;;;;;3.78;1.10;;;;;;;;;;6790597;29;20351;-81
2021/05/21 12:16:56;;;;;;;4.18;1.65;;;;;;;;;;6803800;29;20074;-81
2021/05/21 12:20:20;;;;;;;2.90;1.55;;;;;;;;;;6801849;29;20040;-81
2021/05/21 12:23:41;;;;;;;1.85;1.20;;;;;;;;;;6813134;29;20042;-79
2021/05/21 12:27:01;;;;;;;2.47;1.40;;;;;;;;;;6795839;29;20431;-80
2021/05/21 12:30:22;;;;;;;1.55;1.15;;;;;;;;;;6818641;23;20599;-80
2021/05/21 12:33:42;;;;;;;1.52;1.10;;;;;;;;;;6773047;29;20075;-80
2021/05/21 12:37:08;;;;;;;2.15;1.20;;;;;;;;;;6773005;29;20134;-80
2021/05/21 12:40:28;;;;;;;1.65;1.05;;;;;;;;;;6778821;29;20024;-80
2021/05/21 12:43:50;;;;;;;2.05;1.25;;;;;;;;;;6791610;29;20036;-80
2021/05/21 12:47:10;;;;;;;2.50;1.30;;;;;;;;;;6765743;29;20390;-81
2021/05/21 12:50:32;;;;;;;2.22;1.30;;;;;;;;;;6770923;29;21012;-80
2021/05/21 12:53:53;;;;;;;2.78;1.20;;;;;;;;;;6792331;29;20032;-80
2021/05/21 12:57:25;;;;;;;3.22;1.35;;;;;;;;;;6772016;29;20180;-80
2021/05/21 13:00:50;;;;;;;5.50;1.38;;;;;;;;;;6785176;29;20036;-80
2021/05/21 13:04:19;;;;;;;1.42;1.05;;;;;;;;;;6797510;29;20138;-80
2021/05/21 13:07:40;;;;;;;;;;;;;;;;;;6792106;29;20040;-81
2021/05/21 13:11:03;;;;;;;10.55;1.50;;;;;;;;;;6799812;29;19966;-80
2021/05/21 13:14:29;;;;;;;2.10;1.30;;;;;;;;;;6786285;29;20496;-80
2021/05/21 13:17:52;;;;;;;2.97;1.30;;;;;;;;;;6789971;29;20036;-81
2021/05/21 13:21:13;;;;;;;3.45;1.30;;;;;;;;;;6786119;29;20122;-80
2021/05/21 13:24:33;;;;;;;4.05;1.20;;;;;;;;;;6794995;29;20054;-80
2021/05/21 13:27:54;;;;;;;1.73;1.20;;;;;;;;;;6796261;29;20078;-80
2021/05/21 13:31:14;;;;;;;4.38;1.58;;;;;;;;;;6797626;29;20386;-79
2021/05/21 13:34:35;;;;;;;2.33;1.20;;;;;;;;;;6788645;29;20264;-81
2021/05/21 13:37:59;;;;;;;4.20;1.35;;;;;;;;;;6787017;29;20039;-82
2021/05/21 13:41:20;;;;;;;2.47;1.30;;;;;;;;;;6779040;29;20122;-81
2021/05/21 13:44:41;;;;;;;2.25;1.17;;;;;;;;;;6796153;29;20040;-81
2021/05/21 13:48:01;;;;;;;4.20;1.40;;;;;;;;;;6774024;29;20039;-81
2021/05/21 13:51:22;;;;;;;5.25;1.40;;;;;;;;;;6794040;29;20064;-80
2021/05/21 13:54:42;;;;;;;3.40;1.30;;;;;;;;;;6792292;29;20058;-80
2021/05/21 13:58:02;;;;;;;5.25;1.38;;;;;;;;;;6792352;29;20051;-80
2021/05/21 14:01:23;;;;;;;3.40;1.20;;;;;;;;;;6791654;29;20032;-80
2021/05/21 14:04:43;;;;;;;2.05;1.10;;;;;;;;;;6789348;29;20398;-80
2021/05/21 14:08:04;;;;;;;1.90;1.30;;;;;;;;;;6785944;29;20084;-80
2021/05/21 14:11:24;;;;;;;12.02;1.35;;;;;;;;;;6786569;29;20112;-80
2021/05/21 14:14:45;;;;;;;2.47;1.23;;;;;;;;;;6790366;29;20032;-80
2021/05/21 14:18:05;;;;;;;2.10;1.15;;;;;;;;;;6785774;29;20072;-80
2021/05/21 14:21:26;;;;;;;3.78;1.38;;;;;;;;;;6790976;29;20035;-80
2021/05/21 14:24:46;;;;;;;5.20;1.35;;;;;;;;;;6785267;29;20082;-80
2021/05/21 14:28:07;;;;;;;2.88;0.80;;;;;;;;;;6786212;29;20032;-80
2021/05/21 14:31:27;;;;;;;2.80;1.38;;;;;;;;;;6786307;29;20127;-80
2021/05/21 14:34:48;;;;;;;4.22;1.48;;;;;;;;;;6768345;29;20078;-81
2021/05/21 14:38:08;;;;;;;2.67;1.15;;;;;;;;;;6784940;29;20082;-81
2021/05/21 14:41:28;;;;;;;3.78;1.40;;;;;;;;;;6800447;29;20036;-81
2021/05/21 14:44:49;;;;;;;8.40;1.35;;;;;;;;;;6769826;29;20036;-81
2021/05/21 14:48:09;;;;;;;4.22;1.17;;;;;;;;;;6782426;29;20526;-81
2021/05/21 14:51:30;;;;;;;3.53;1.30;;;;;;;;;;6788247;29;20471;-81
2021/05/21 14:54:51;;;;;;;11.80;1.70;;;;;;;;;;6780991;29;20127;-80
2021/05/21 14:58:12;;;;;;;8.55;1.60;;;;;;;;;;6798877;29;20035;-80
2021/05/21 15:01:32;;;;;;;4.82;1.33;;;;;;;;;;6793734;29;20414;-80
2021/05/21 15:04:56;;;;;;;3.47;1.55;;;;;;;;;;6798891;29;20036;-80
2021/05/21 15:08:16;;;;;;;5.00;1.13;;;;;;;;;;6771718;29;20127;-80
2021/05/21 15:11:41;;;;;;;4.60;1.55;;;;;;;;;;6784882;29;20040;-81
2021/05/21 15:15:09;;;;;;;3.35;1.30;;;;;;;;;;6772595;29;20032;-81
2021/05/21 15:25:35;;;;;;;6.90;1.77;;;;;;;;;;6772732;29;20068;-81
2021/05/21 15:28:55;;;;;;;2.83;1.60;;;;;;;;;;6790181;29;20437;-83
2021/05/21 15:32:16;;;;;;;5.80;1.50;;;;;;;;;;6792786;29;20146;-81
2021/05/21 15:35:37;;;;;;;5.45;1.70;;;;;;;;;;6778954;29;20044;-80
2021/05/21 15:38:57;;;;;;;2.63;1.40;;;;;;;;;;6779926;29;20032;-80
2021/05/21 15:45:38;;;;;;;5.47;1.52;;;;;;;;;;6789365;29;20083;-81
2021/05/21 15:49:14;;;;;;;1.60;1.20;;;;;;;;;;6787355;29;20032;-80
2021/05/21 15:59:34;;;;;;;4.97;1.80;;;;;;;;;;6792474;29;20082;-81
2021/05/21 16:02:55;;;;;;;3.67;1.63;;;;;;;;;;6782366;29;20054;-81
2021/05/21 16:06:15;;;;;;;9.43;1.85;;;;;;;;;;6779712;29;20498;-81
2021/05/21 16:09:36;;;;;;;6.78;1.30;;;;;;;;;;6766635;29;20040;-81
2021/05/21 16:12:56;;;;;;;7.82;1.35;;;;;;;;;;6768317;29;20032;-80
2021/05/21 16:16:17;;;;;;;6.07;1.55;;;;;;;;;;6781805;29;20063;-80
2021/05/21 16:19:38;;;;;;;4.68;1.40;;;;;;;;;;6779762;29;20036;-80
2021/05/21 16:22:59;;;;;;;2.50;1.60;;;;;;;;;;6796414;29;20478;-80
2021/05/21 16:26:19;;;;;;;3.50;1.38;;;;;;;;;;6775956;29;20415;-80
2021/05/21 16:29:42;;;;;;;4.00;1.27;;;;;;;;;;6790059;29;20074;-80
2021/05/21 16:33:02;;;;;;;4.45;1.65;;;;;;;;;;6782892;29;20036;-81
2021/05/21 16:36:24;;;;;;;3.10;1.40;;;;;;;;;;6783230;29;20044;-81
2021/05/21 16:39:45;;;;;;;7.57;1.40;;;;;;;;;;6765815;29;20064;-81
2021/05/21 16:43:06;;;;;;;4.45;1.35;;;;;;;;;;6796266;29;20051;-82
2021/05/21 16:46:27;;;;;;;3.22;1.33;;;;;;;;;;6770915;29;20039;-81
2021/05/21 16:49:47;;;;;;;3.10;1.25;;;;;;;;;;6781041;29;20087;-81
2021/05/21 16:53:08;;;;;;;3.83;1.35;;;;;;;;;;6798416;29;20438;-81
2021/05/21 16:56:30;;;;;;;2.33;1.05;;;;;;;;;;6789910;29;20035;-81
2021/05/21 16:59:51;;;;;;;2.88;1.45;;;;;;;;;;6769238;29;20040;-81
2021/05/21 17:03:11;;;;;;;3.03;1.30;;;;;;;;;;6789416;29;20036;-81
2021/05/21 17:06:32;;;;;;;6.95;1.30;;;;;;;;;;6791461;29;20127;-81
2021/05/21 17:09:52;;;;;;;2.33;1.40;;;;;;;;;;6787943;29;20566;-81
2021/05/21 17:13:13;;;;;;;4.28;1.48;;;;;;;;;;6771170;29;20123;-81
2021/05/21 17:20:49;;;;;;;6.05;1.45;;;;;;;;;;6773957;29;20067;-80
2021/05/21 17:52:57;;;;;;;3.65;1.65;;;;;;;;;;6784203;29;20047;-80
2021/05/21 18:10:37;;;;;;;2.92;1.00;;;;;;;;;;6788583;29;20069;-81
2021/05/21 18:25:24;;;;;;;1.98;1.30;;;;;;;;;;6788370;29;20061;-80
2021/05/21 18:43:53;;;;;;;1.92;1.20;;;;;;;;;;6786486;29;20036;-80
2021/05/21 19:04:56;;;;;;;;;;;;;;;;;;6784078;29;20036;-81
2021/05/21 19:08:29;;;;;;;5.28;1.40;;;;;;;;;;6791070;29;19926;-81
2021/05/21 19:11:55;;;;;;;5.32;1.40;;;;;;;;;;6790061;29;20032;-80
2021/05/21 19:16:01;;;;;;;6.55;1.20;;;;;;;;;;6784939;29;20040;-80
2021/05/21 19:19:04;;;;;;;3.75;1.30;;;;;;;;;;6770681;29;20044;-79
2021/05/21 19:22:25;;;;;;;8.55;1.50;;;;;;;;;;6785364;29;20098;-79
2021/05/21 19:25:47;;;;;;;6.57;1.65;;;;;;;;;;6779813;29;20364;-79
2021/05/21 20:12:24;;;;;;;11.80;2.83;;;;;;;;;;6779654;29;20027;-79
2021/05/21 20:15:46;;;;;;;18.65;3.50;;;;;;;;;;6765912;29;20451;-79
2021/05/21 20:19:07;;;;;;;15.90;3.22;;;;;;;;;;6767239;29;20035;-79
2021/05/21 20:22:28;;;;;;;12.40;2.65;;;;;;;;;;6782490;29;20360;-79
2021/05/21 20:25:56;;;;;;;8.98;2.45;;;;;;;;;;6782426;29;20466;-79
2021/05/21 20:29:29;;;;;;;7.80;2.83;;;;;;;;;;6778620;29;20039;-79
2021/05/21 21:02:00;;;;;;;;;;;;;;;;;;6772133;29;20032;-80
2021/05/21 21:08:57;;;;;;;10.13;2.00;;;;;;;;;;6766775;29;20051;-81
2021/05/21 21:12:31;;;;;;;6.32;2.08;;;;;;;;;;6780668;29;20036;-81
2021/05/21 21:27:00;;;;;;;;;;;;;;;;;;6771684;29;20471;-80
2021/05/21 21:48:26;;;;;;;11.30;2.45;;;;;;;;;;6789060;29;20035;-79
2021/05/21 21:51:29;;;;;;;11.52;2.60;;;;;;;;;;6791678;29;20085;-79
2021/05/21 21:55:02;;;;;;;19.33;2.20;;;;;;;;;;6786846;29;20374;-79
2021/05/21 21:58:33;;;;;;;9.60;2.03;;;;;;;;;;6799278;29;20054;-79
2021/05/21 22:12:48;;;;;;;15.43;2.58;;;;;;;;;;6783048;29;20032;-78
2021/05/21 22:26:30;;;;;;;6.32;2.45;;;;;;;;;;6776410;29;20032;-79
2021/05/21 22:29:53;;;;;;;8.93;1.98;;;;;;;;;;6777052;29;20052;-78
2021/05/21 22:33:14;;;;;;;14.00;2.20;;;;;;;;;;6775764;29;20032;-79
2021/05/21 22:36:36;;;;;;;6.28;2.05;;;;;;;;;;6790458;29;20139;-78
2021/05/21 22:39:56;;;;;;;11.52;2.33;;;;;;;;;;6786782;29;20035;-78
2021/05/21 22:43:17;;;;;;;9.93;2.20;;;;;;;;;;6792490;29;20523;-79
2021/05/21 22:46:37;;;;;;;6.68;2.20;;;;;;;;;;6791987;29;20035;-78
2021/05/21 22:49:58;;;;;;;8.55;2.33;;;;;;;;;;6789536;29;20071;-78
2021/05/21 22:53:18;;;;;;;12.65;2.05;;;;;;;;;;6794100;29;20024;-78
2021/05/21 22:56:39;;;;;;;8.68;1.73;;;;;;;;;;6792658;29;20050;-79
2021/05/21 23:00:00;;;;;;;9.23;2.10;;;;;;;;;;6791885;29;20051;-81
